createdAt,value
2017-06-12T00:00:41.337Z,19.53
2017-06-12T00:01:56.864Z,19.5
2017-06-12T00:03:12.396Z,19.42
2017-06-12T00:04:27.836Z,19.42
2017-06-12T00:05:43.286Z,19.39
2017-06-12T00:06:58.705Z,19.39
2017-06-12T00:08:14.164Z,19.27
2017-06-12T00:09:29.606Z,19.27
2017-06-12T00:10:45.083Z,19.28
2017-06-12T00:12:00.540Z,19.25
2017-06-12T00:13:14.536Z,19.3
2017-06-12T00:14:29.993Z,19.27
2017-06-12T00:15:45.401Z,19.24
2017-06-12T00:17:00.860Z,19.37
2017-06-12T00:18:16.276Z,19.34
2017-06-12T00:19:31.719Z,19.34
2017-06-12T00:20:47.232Z,19.37
2017-06-12T00:22:02.712Z,19.35
2017-06-12T00:23:16.509Z,19.39
2017-06-12T00:24:32.000Z,19.31
2017-06-12T00:25:47.741Z,19.37
2017-06-12T00:27:03.173Z,19.3
2017-06-12T00:28:18.743Z,19.42
2017-06-12T00:29:34.512Z,19.34
2017-06-12T00:30:48.657Z,19.35
2017-06-12T00:32:04.307Z,19.3
2017-06-12T00:33:19.694Z,19.35
2017-06-12T00:34:35.128Z,19.3
2017-06-12T00:35:50.624Z,19.23
2017-06-12T00:37:06.100Z,19.24
2017-06-12T00:38:21.682Z,19.21
2017-06-12T00:39:37.100Z,19.19
2017-06-12T00:40:52.639Z,19.15
2017-06-12T00:42:08.098Z,19.18
2017-06-12T00:43:23.565Z,19.15
2017-06-12T00:44:39.013Z,19.21
2017-06-12T00:45:54.631Z,19.15
2017-06-12T00:47:10.083Z,19.12
2017-06-12T00:48:25.574Z,19.13
2017-06-12T00:49:41.128Z,19.08
2017-06-12T00:50:56.586Z,19.08
2017-06-12T00:52:12.267Z,19.12
2017-06-12T00:53:27.792Z,19.13
2017-06-12T00:54:41.954Z,19.16
2017-06-12T00:55:57.345Z,19.13
2017-06-12T00:57:11.405Z,19.1
2017-06-12T00:58:27.002Z,19.1
2017-06-12T00:59:42.534Z,19.16
2017-06-12T01:00:57.990Z,19.15
2017-06-12T01:02:12.132Z,19.09
2017-06-12T01:03:27.603Z,18.98
2017-06-12T01:04:43.053Z,19.1
2017-06-12T01:05:58.521Z,19.13
2017-06-12T01:07:13.985Z,19.1
2017-06-12T01:08:29.487Z,19.03
2017-06-12T01:09:44.937Z,19.12
2017-06-12T01:11:00.416Z,19
2017-06-12T01:12:15.871Z,19.08
2017-06-12T01:13:31.311Z,18.97
2017-06-12T01:14:45.354Z,19.02
2017-06-12T01:16:00.977Z,18.97
2017-06-12T01:17:16.464Z,19.03
2017-06-12T01:18:31.920Z,18.98
2017-06-12T01:19:47.561Z,18.98
2017-06-12T01:21:03.009Z,19.03
2017-06-12T01:22:18.479Z,19.06
2017-06-12T01:23:33.958Z,18.98
2017-06-12T01:24:48.160Z,19.02
2017-06-12T01:26:03.588Z,18.93
2017-06-12T01:27:19.068Z,18.94
2017-06-12T01:28:34.509Z,19
2017-06-12T01:29:49.909Z,19
2017-06-12T01:31:05.398Z,18.97
2017-06-12T01:32:20.859Z,18.97
2017-06-12T01:33:36.323Z,18.9
2017-06-12T01:34:51.797Z,18.98
2017-06-12T01:36:07.243Z,18.98
2017-06-12T01:37:53.521Z,19
2017-06-12T01:39:09.078Z,18.98
2017-06-12T01:40:24.534Z,19.03
2017-06-12T01:41:39.974Z,19.03
2017-06-12T01:42:55.475Z,18.95
2017-06-12T01:44:10.937Z,19.03
2017-06-12T01:45:26.375Z,19.09
2017-06-12T01:46:41.877Z,19
2017-06-12T01:47:57.313Z,18.98
2017-06-12T01:49:12.889Z,18.97
2017-06-12T01:50:28.586Z,18.95
2017-06-12T01:51:44.064Z,18.97
2017-06-12T01:52:59.575Z,18.97
2017-06-12T01:54:15.218Z,18.97
2017-06-12T01:55:30.375Z,18.98
2017-06-12T01:56:44.526Z,19.05
2017-06-12T01:57:59.960Z,19
2017-06-12T01:59:15.519Z,19.09
2017-06-12T02:00:30.960Z,18.95
2017-06-12T02:01:46.530Z,19.1
2017-06-12T02:03:01.974Z,19
2017-06-12T02:04:17.066Z,19.05
2017-06-12T02:05:32.560Z,18.97
2017-06-12T02:06:48.017Z,19.05
2017-06-12T02:08:03.093Z,19.03
2017-06-12T02:09:18.555Z,19.03
2017-06-12T02:10:34.054Z,18.98
2017-06-12T02:11:49.169Z,18.95
2017-06-12T02:13:04.645Z,18.98
2017-06-12T02:14:18.858Z,18.98
2017-06-12T02:15:34.520Z,18.95
2017-06-12T02:16:50.237Z,18.98
2017-06-12T02:18:05.655Z,18.97
2017-06-12T02:19:21.135Z,18.97
2017-06-12T02:20:36.766Z,18.97
2017-06-12T02:21:52.171Z,18.97
2017-06-12T02:23:21.085Z,18.98
2017-06-12T02:24:36.801Z,19.02
2017-06-12T02:25:52.445Z,19.02
2017-06-12T02:27:07.900Z,19.06
2017-06-12T02:28:23.345Z,19.08
2017-06-12T02:29:38.823Z,19.02
2017-06-12T02:30:54.285Z,19.05
2017-06-12T02:32:09.839Z,19.03
2017-06-12T02:33:23.988Z,19.03
2017-06-12T02:34:39.415Z,18.97
2017-06-12T02:35:54.896Z,19
2017-06-12T02:37:10.374Z,19.02
2017-06-12T02:38:25.754Z,19.02
2017-06-12T02:39:39.773Z,19.03
2017-06-12T02:40:55.224Z,18.94
2017-06-12T02:42:09.463Z,18.94
2017-06-12T02:43:24.997Z,18.98
2017-06-12T02:44:39.123Z,19
2017-06-12T02:45:54.723Z,18.97
2017-06-12T02:47:10.300Z,18.9
2017-06-12T02:48:25.770Z,18.93
2017-06-12T02:49:39.935Z,18.95
2017-06-12T02:50:55.399Z,18.88
2017-06-12T02:52:11.020Z,18.82
2017-06-12T02:53:26.470Z,18.78
2017-06-12T02:54:41.933Z,18.67
2017-06-12T02:55:57.407Z,18.71
2017-06-12T02:57:12.860Z,18.72
2017-06-12T02:58:28.539Z,18.65
2017-06-12T02:59:43.993Z,18.57
2017-06-12T03:00:59.463Z,18.65
2017-06-12T03:02:14.930Z,18.6
2017-06-12T03:03:29.112Z,18.55
2017-06-12T03:04:44.638Z,18.47
2017-06-12T03:06:00.249Z,18.44
2017-06-12T03:07:15.668Z,18.44
2017-06-12T03:08:31.151Z,18.46
2017-06-12T03:09:46.651Z,18.41
2017-06-12T03:11:00.820Z,18.41
2017-06-12T03:12:16.481Z,18.44
2017-06-12T03:13:31.944Z,18.34
2017-06-12T03:14:47.391Z,18.34
2017-06-12T03:16:02.937Z,18.38
2017-06-12T03:17:18.727Z,18.28
2017-06-12T03:18:32.902Z,18.37
2017-06-12T03:19:48.460Z,18.37
2017-06-12T03:21:03.928Z,18.4
2017-06-12T03:22:19.397Z,18.42
2017-06-12T03:23:34.935Z,18.35
2017-06-12T03:24:48.963Z,18.4
2017-06-12T03:26:04.448Z,18.3
2017-06-12T03:27:20.078Z,18.31
2017-06-12T03:28:35.547Z,18.38
2017-06-12T03:29:51.009Z,18.38
2017-06-12T03:31:06.469Z,18.35
2017-06-12T03:32:21.507Z,18.26
2017-06-12T03:33:37.158Z,18.42
2017-06-12T03:34:52.591Z,18.31
2017-06-12T03:36:08.018Z,18.41
2017-06-12T03:37:23.506Z,18.35
2017-06-12T03:38:38.911Z,18.26
2017-06-12T03:39:54.391Z,18.35
2017-06-12T03:41:08.716Z,18.4
2017-06-12T03:42:22.903Z,18.44
2017-06-12T03:43:38.290Z,18.3
2017-06-12T03:44:53.728Z,18.38
2017-06-12T03:46:09.202Z,18.42
2017-06-12T03:47:24.688Z,18.35
2017-06-12T03:48:40.121Z,18.42
2017-06-12T03:49:55.616Z,18.42
2017-06-12T03:51:09.666Z,18.26
2017-06-12T03:52:25.193Z,18.32
2017-06-12T03:53:40.262Z,18.2
2017-06-12T03:54:55.900Z,18.19
2017-06-12T03:56:11.360Z,18.28
2017-06-12T03:57:26.864Z,18.12
2017-06-12T03:58:42.417Z,18.13
2017-06-12T03:59:57.851Z,18.12
2017-06-12T04:01:11.984Z,18.12
2017-06-12T04:02:27.464Z,18.13
2017-06-12T04:03:40.440Z,18.1
2017-06-12T04:04:55.962Z,18.1
2017-06-12T04:06:10.123Z,18.1
2017-06-12T04:07:25.566Z,18
2017-06-12T04:08:41.074Z,18
2017-06-12T04:09:55.229Z,17.89
2017-06-12T04:11:10.908Z,17.98
2017-06-12T04:12:26.427Z,17.92
2017-06-12T04:13:55.314Z,17.94
2017-06-12T04:15:09.327Z,17.97
2017-06-12T04:16:24.940Z,17.87
2017-06-12T04:17:40.430Z,17.86
2017-06-12T04:18:55.829Z,17.87
2017-06-12T04:20:08.696Z,17.94
2017-06-12T04:21:24.096Z,17.86
2017-06-12T04:22:35.496Z,17.91
2017-06-12T04:23:50.939Z,17.95
2017-06-12T04:25:04.950Z,17.97
2017-06-12T04:26:20.379Z,17.95
2017-06-12T04:27:34.475Z,18
2017-06-12T04:28:49.991Z,18.01
2017-06-12T04:30:05.464Z,17.97
2017-06-12T04:31:19.769Z,17.98
2017-06-12T04:32:34.017Z,17.98
2017-06-12T04:33:48.146Z,17.95
2017-06-12T04:35:03.610Z,18.01
2017-06-12T04:36:17.938Z,18
2017-06-12T04:37:33.417Z,18.02
2017-06-12T04:38:48.903Z,18
2017-06-12T04:40:04.558Z,17.92
2017-06-12T04:41:19.946Z,17.97
2017-06-12T04:42:35.424Z,17.95
2017-06-12T04:43:49.541Z,17.98
2017-06-12T04:45:05.000Z,18
2017-06-12T04:46:20.436Z,18.01
2017-06-12T04:47:35.813Z,18.02
2017-06-12T04:48:51.284Z,17.92
2017-06-12T04:50:06.746Z,18.1
2017-06-12T04:51:20.916Z,18
2017-06-12T04:52:35.982Z,18
2017-06-12T04:53:50.199Z,18.12
2017-06-12T04:55:04.342Z,18.09
2017-06-12T04:56:19.416Z,18.15
2017-06-12T04:57:34.843Z,18.12
2017-06-12T04:58:50.255Z,18.16
2017-06-12T05:00:05.788Z,18.25
2017-06-12T05:01:21.280Z,18.38
2017-06-12T05:02:36.767Z,18.37
2017-06-12T05:03:52.159Z,18.37
2017-06-12T05:05:07.619Z,18.31
2017-06-12T05:06:23.083Z,18.41
2017-06-12T05:07:38.586Z,18.38
2017-06-12T05:08:54.060Z,18.47
2017-06-12T05:10:09.568Z,18.44
2017-06-12T05:11:25.019Z,18.46
2017-06-12T05:12:39.243Z,18.56
2017-06-12T05:15:22.425Z,18.57
2017-06-12T05:16:37.998Z,18.72
2017-06-12T05:17:53.416Z,18.69
2017-06-12T05:19:08.811Z,18.72
2017-06-12T05:20:24.300Z,18.73
2017-06-12T05:21:39.770Z,18.69
2017-06-12T05:22:53.926Z,18.72
2017-06-12T05:24:09.402Z,18.65
2017-06-12T05:25:25.023Z,18.59
2017-06-12T05:26:40.160Z,18.52
2017-06-12T05:27:55.337Z,18.53
2017-06-12T05:29:10.816Z,18.53
2017-06-12T05:30:24.816Z,18.49
2017-06-12T05:31:40.685Z,18.57
2017-06-12T05:32:56.312Z,18.6
2017-06-12T05:34:11.769Z,18.62
2017-06-12T05:35:27.221Z,18.63
2017-06-12T05:36:42.740Z,18.56
2017-06-12T05:37:58.272Z,18.57
2017-06-12T05:39:13.732Z,18.65
2017-06-12T05:40:29.213Z,18.57
2017-06-12T05:41:44.657Z,18.6
2017-06-12T05:43:00.135Z,18.67
2017-06-12T05:44:15.793Z,18.65
2017-06-12T05:45:31.278Z,18.65
2017-06-12T05:46:46.706Z,18.67
2017-06-12T05:48:02.225Z,18.63
2017-06-12T05:49:17.315Z,18.65
2017-06-12T05:50:32.789Z,18.69
2017-06-12T05:51:48.245Z,18.71
2017-06-12T05:53:03.677Z,18.69
2017-06-12T05:54:19.157Z,18.8
2017-06-12T05:55:34.572Z,18.87
2017-06-12T05:56:50.034Z,18.84
2017-06-12T05:58:04.194Z,18.94
2017-06-12T05:59:19.691Z,18.91
2017-06-12T06:00:35.138Z,18.9
2017-06-12T06:01:50.712Z,18.95
2017-06-12T06:03:06.150Z,19.02
2017-06-12T06:04:21.621Z,19.08
2017-06-12T06:05:37.086Z,19.03
2017-06-12T06:06:52.838Z,19.1
2017-06-12T06:08:38.963Z,19.13
2017-06-12T06:09:54.397Z,19.18
2017-06-12T06:11:08.635Z,19.16
2017-06-12T06:12:24.102Z,19.24
2017-06-12T06:13:39.743Z,19.31
2017-06-12T06:14:55.216Z,19.27
2017-06-12T06:16:10.705Z,19.34
2017-06-12T06:17:26.133Z,19.31
2017-06-12T06:18:41.613Z,19.27
2017-06-12T06:19:57.214Z,19.27
2017-06-12T06:21:12.903Z,19.28
2017-06-12T06:22:28.411Z,19.31
2017-06-12T06:23:44.146Z,19.23
2017-06-12T06:24:58.288Z,19.03
2017-06-12T06:26:13.728Z,19.09
2017-06-12T06:27:29.159Z,18.95
2017-06-12T06:28:44.671Z,18.88
2017-06-12T06:30:00.491Z,18.86
2017-06-12T06:31:15.538Z,18.87
2017-06-12T06:32:31.106Z,18.9
2017-06-12T06:33:46.555Z,18.91
2017-06-12T06:35:00.651Z,18.87
2017-06-12T06:36:16.346Z,19
2017-06-12T06:37:31.479Z,18.94
2017-06-12T06:38:46.890Z,18.98
2017-06-12T06:40:02.350Z,18.97
2017-06-12T06:41:17.821Z,19.03
2017-06-12T06:42:33.404Z,18.97
2017-06-12T06:43:47.621Z,18.94
2017-06-12T06:45:03.242Z,19
2017-06-12T06:46:18.745Z,18.94
2017-06-12T06:47:34.226Z,18.98
2017-06-12T06:48:49.659Z,18.94
2017-06-12T06:50:05.105Z,18.97
2017-06-12T06:51:20.573Z,18.97
2017-06-12T06:52:36.023Z,19
2017-06-12T06:53:50.101Z,18.93
2017-06-12T06:55:05.562Z,18.93
2017-06-12T06:56:21.064Z,18.9
2017-06-12T06:57:36.597Z,18.93
2017-06-12T06:58:52.047Z,18.91
2017-06-12T07:00:07.649Z,18.88
2017-06-12T07:01:23.263Z,18.88
2017-06-12T07:02:38.711Z,18.88
2017-06-12T07:03:54.173Z,18.82
2017-06-12T07:05:09.732Z,18.91
2017-06-12T07:06:25.153Z,18.8
2017-06-12T07:07:40.777Z,18.72
2017-06-12T07:08:56.192Z,18.59
2017-06-12T07:10:10.171Z,18.55
2017-06-12T07:11:25.559Z,18.55
2017-06-12T07:12:39.699Z,18.46
2017-06-12T07:13:55.311Z,18.49
2017-06-12T07:15:10.757Z,18.47
2017-06-12T07:16:26.227Z,18.52
2017-06-12T07:17:41.940Z,18.4
2017-06-12T07:18:57.510Z,18.37
2017-06-12T07:20:12.969Z,18.35
2017-06-12T07:21:28.433Z,18.41
2017-06-12T07:22:43.866Z,18.52
2017-06-12T07:23:59.350Z,18.52
2017-06-12T07:25:14.841Z,18.67
2017-06-12T07:26:30.438Z,18.6
2017-06-12T07:27:45.859Z,18.69
2017-06-12T07:29:01.316Z,18.71
2017-06-12T07:30:16.773Z,18.69
2017-06-12T07:31:30.799Z,18.69
2017-06-12T07:32:46.268Z,18.71
2017-06-12T07:34:01.771Z,18.8
2017-06-12T07:35:17.236Z,18.78
2017-06-12T07:36:32.663Z,18.73
2017-06-12T07:37:48.300Z,18.62
2017-06-12T07:39:03.781Z,18.71
2017-06-12T07:40:19.230Z,18.59
2017-06-12T07:41:34.798Z,18.62
2017-06-12T07:42:48.847Z,18.65
2017-06-12T07:44:04.317Z,18.75
2017-06-12T07:45:20.008Z,18.72
2017-06-12T07:46:35.481Z,18.75
2017-06-12T07:47:50.921Z,18.72
2017-06-12T07:49:06.411Z,18.72
2017-06-12T07:50:21.824Z,18.67
2017-06-12T07:51:35.994Z,18.79
2017-06-12T07:52:51.512Z,18.8
2017-06-12T07:54:07.006Z,18.8
2017-06-12T07:55:22.453Z,18.86
2017-06-12T07:56:36.582Z,18.88
2017-06-12T07:57:52.003Z,19
2017-06-12T07:59:07.748Z,19.09
2017-06-12T08:00:23.198Z,19.15
2017-06-12T08:01:52.257Z,19.09
2017-06-12T08:03:07.894Z,19.08
2017-06-12T08:04:22.075Z,19.13
2017-06-12T08:05:36.147Z,19.15
2017-06-12T08:06:51.511Z,19.21
2017-06-12T08:08:07.009Z,19.15
2017-06-12T08:09:21.176Z,19.21
2017-06-12T08:10:36.668Z,19.25
2017-06-12T08:11:52.099Z,19.34
2017-06-12T08:13:07.596Z,19.23
2017-06-12T08:14:23.076Z,19.19
2017-06-12T08:15:36.857Z,19.13
2017-06-12T08:16:51.017Z,19.23
2017-06-12T08:18:06.420Z,19.23
2017-06-12T08:19:21.866Z,19.27
2017-06-12T08:20:37.325Z,19.25
2017-06-12T08:21:52.983Z,19.33
2017-06-12T08:23:08.393Z,19.43
2017-06-12T08:24:23.826Z,19.48
2017-06-12T08:25:39.281Z,19.53
2017-06-12T08:26:54.831Z,19.58
2017-06-12T08:28:09.014Z,19.71
2017-06-12T08:29:24.490Z,19.79
2017-06-12T08:30:39.961Z,19.85
2017-06-12T08:31:55.376Z,19.92
2017-06-12T08:33:10.884Z,20.03
2017-06-12T08:34:26.290Z,20.11
2017-06-12T08:35:41.735Z,20.17
2017-06-12T08:36:57.204Z,20.28
2017-06-12T08:38:12.689Z,20.38
2017-06-12T08:39:28.135Z,20.38
2017-06-12T08:40:43.630Z,20.51
2017-06-12T08:41:57.811Z,20.45
2017-06-12T08:43:13.257Z,20.61
2017-06-12T08:44:27.412Z,20.78
2017-06-12T08:45:42.822Z,20.88
2017-06-12T08:46:58.311Z,21.09
2017-06-12T08:48:13.672Z,21.12
2017-06-12T08:49:29.183Z,21.19
2017-06-12T08:50:44.835Z,21.48
2017-06-12T08:52:00.256Z,21.57
2017-06-12T08:53:14.440Z,21.84
2017-06-12T08:54:28.431Z,22.03
2017-06-12T08:55:43.940Z,22.11
2017-06-12T08:56:59.476Z,22.31
2017-06-12T08:58:14.911Z,22.42
2017-06-12T08:59:30.003Z,22.34
2017-06-12T09:00:45.477Z,22.35
2017-06-12T09:02:01.193Z,22.76
2017-06-12T09:03:16.673Z,23.23
2017-06-12T09:04:32.147Z,23.77
2017-06-12T09:05:47.555Z,23.82
2017-06-12T09:07:03.035Z,24.1
2017-06-12T09:08:18.480Z,24.38
2017-06-12T09:09:33.995Z,24.29
2017-06-12T09:10:49.478Z,24.6
2017-06-12T09:12:05.356Z,24.87
2017-06-12T09:13:19.369Z,25.22
2017-06-12T09:14:34.877Z,25.34
2017-06-12T09:15:50.293Z,25.17
2017-06-12T09:17:04.471Z,24.84
2017-06-12T09:18:19.922Z,24.58
2017-06-12T09:19:35.425Z,24.58
2017-06-12T09:20:51.047Z,24.54
2017-06-12T09:22:06.512Z,24.85
2017-06-12T09:23:22.010Z,25.19
2017-06-12T09:24:37.509Z,25.66
2017-06-12T09:25:53.167Z,26.12
2017-06-12T09:27:07.345Z,26.55
2017-06-12T09:28:21.318Z,26.93
2017-06-12T09:29:36.817Z,27.14
2017-06-12T09:30:52.514Z,27.37
2017-06-12T09:32:06.655Z,27.65
2017-06-12T09:33:22.110Z,27.9
2017-06-12T09:34:34.840Z,28
2017-06-12T09:35:48.878Z,28.27
2017-06-12T09:37:03.028Z,28.5
2017-06-12T09:38:18.518Z,28.61
2017-06-12T09:39:33.974Z,28.5
2017-06-12T09:40:48.158Z,28.24
2017-06-12T09:42:03.608Z,27.67
2017-06-12T09:43:19.131Z,27.58
2017-06-12T09:44:34.734Z,27.5
2017-06-12T09:45:50.213Z,27.39
2017-06-12T09:47:05.606Z,27.26
2017-06-12T09:48:19.787Z,27.12
2017-06-12T09:49:35.261Z,27.3
2017-06-12T09:50:50.747Z,27.39
2017-06-12T09:52:06.466Z,27.41
2017-06-12T09:53:20.513Z,27.58
2017-06-12T09:54:36.005Z,27.63
2017-06-12T09:55:51.534Z,27.8
2017-06-12T09:57:05.737Z,27.89
2017-06-12T09:58:21.476Z,28.23
2017-06-12T09:59:36.969Z,28.04
2017-06-12T10:01:06.046Z,28.07
2017-06-12T10:02:21.505Z,28.26
2017-06-12T10:03:36.613Z,27.97
2017-06-12T10:04:51.734Z,27.7
2017-06-12T10:06:07.251Z,27.28
2017-06-12T10:07:22.752Z,26.67
2017-06-12T10:08:38.236Z,26.11
2017-06-12T10:09:53.784Z,25.47
2017-06-12T10:11:09.223Z,24.81
2017-06-12T10:12:24.715Z,24.27
2017-06-12T10:13:40.191Z,23.75
2017-06-12T10:14:54.382Z,23.14
2017-06-12T10:16:09.822Z,22.65
2017-06-12T10:17:24.105Z,22.35
2017-06-12T10:18:39.597Z,22.42
2017-06-12T10:19:55.033Z,22.7
2017-06-12T10:21:10.487Z,23.16
2017-06-12T10:22:25.923Z,23.45
2017-06-12T10:23:40.158Z,23.92
2017-06-12T10:24:54.168Z,24.24
2017-06-12T10:26:09.611Z,24.47
2017-06-12T10:27:25.168Z,24.8
2017-06-12T10:28:40.638Z,24.81
2017-06-12T10:29:56.127Z,24.78
2017-06-12T10:31:11.624Z,24.6
2017-06-12T10:32:27.033Z,24.34
2017-06-12T10:33:42.465Z,24.07
2017-06-12T10:34:57.985Z,23.76
2017-06-12T10:36:13.454Z,23.63
2017-06-12T10:37:28.968Z,23.42
2017-06-12T10:38:44.431Z,23.38
2017-06-12T10:39:59.915Z,23.68
2017-06-12T10:41:15.430Z,23.9
2017-06-12T10:42:30.578Z,24.25
2017-06-12T10:43:45.717Z,24.78
2017-06-12T10:45:01.203Z,25.15
2017-06-12T10:46:16.675Z,25.55
2017-06-12T10:47:32.145Z,25.65
2017-06-12T10:48:47.923Z,25.54
2017-06-12T10:50:02.114Z,25.54
2017-06-12T10:51:17.203Z,25.55
2017-06-12T10:52:59.826Z,25.71
2017-06-12T10:54:15.355Z,25.56
2017-06-12T10:55:30.863Z,25.43
2017-06-12T10:56:59.906Z,25.1
2017-06-12T10:58:15.441Z,24.85
2017-06-12T10:59:30.961Z,24.54
2017-06-12T11:00:46.440Z,24.35
2017-06-12T11:02:01.919Z,24.06
2017-06-12T11:03:17.409Z,23.73
2017-06-12T11:04:31.587Z,23.55
2017-06-12T11:05:47.056Z,23.33
2017-06-12T11:07:02.541Z,23.08
2017-06-12T11:08:18.012Z,23.11
2017-06-12T11:09:32.201Z,22.95
2017-06-12T11:10:47.488Z,22.65
2017-06-12T11:12:03.128Z,22.52
2017-06-12T11:13:18.608Z,22.48
2017-06-12T11:14:33.724Z,22.23
2017-06-12T11:15:48.868Z,22.16
2017-06-12T11:17:04.381Z,22.11
2017-06-12T11:18:19.931Z,22.09
2017-06-12T11:19:34.094Z,22.12
2017-06-12T11:21:20.396Z,22.33
2017-06-12T11:22:35.938Z,22.63
2017-06-12T11:23:51.398Z,22.93
2017-06-12T11:25:06.939Z,23.16
2017-06-12T11:26:22.376Z,23.58
2017-06-12T11:27:37.820Z,23.91
2017-06-12T11:28:53.294Z,24.12
2017-06-12T11:30:08.786Z,24.31
2017-06-12T11:31:24.450Z,24.57
2017-06-12T11:32:38.649Z,24.78
2017-06-12T11:33:54.083Z,24.69
2017-06-12T11:35:09.597Z,24.29
2017-06-12T11:36:25.041Z,24.07
2017-06-12T11:37:39.299Z,23.69
2017-06-12T11:38:54.769Z,23.36
2017-06-12T11:40:10.273Z,23.17
2017-06-12T11:41:39.407Z,23.01
2017-06-12T11:42:55.219Z,22.89
2017-06-12T11:44:10.660Z,23.02
2017-06-12T11:45:26.225Z,23.17
2017-06-12T11:46:41.501Z,23.33
2017-06-12T11:47:56.996Z,23.7
2017-06-12T11:49:12.640Z,23.91
2017-06-12T11:50:28.137Z,23.97
2017-06-12T11:51:43.616Z,23.91
2017-06-12T11:52:59.361Z,23.85
2017-06-12T11:54:14.990Z,23.77
2017-06-12T11:55:30.508Z,23.7
2017-06-12T11:56:46.033Z,23.48
2017-06-12T11:58:01.507Z,23.31
2017-06-12T11:59:15.617Z,23.14
2017-06-12T12:00:29.961Z,22.86
2017-06-12T12:01:43.958Z,22.89
2017-06-12T12:02:59.420Z,22.87
2017-06-12T12:04:14.885Z,22.7
2017-06-12T12:05:30.344Z,22.3
2017-06-12T12:06:45.805Z,22.09
2017-06-12T12:08:01.265Z,22.02
2017-06-12T12:09:15.675Z,22.02
2017-06-12T12:10:29.885Z,22.06
2017-06-12T12:11:45.494Z,22.08
2017-06-12T12:13:01.063Z,22.2
2017-06-12T12:14:16.528Z,22.15
2017-06-12T12:15:31.986Z,22.16
2017-06-12T12:16:47.410Z,22.21
2017-06-12T12:18:01.583Z,22.24
2017-06-12T12:19:17.077Z,22.2
2017-06-12T12:22:01.683Z,22.13
2017-06-12T12:23:17.189Z,22.06
2017-06-12T12:24:32.763Z,22.01
2017-06-12T12:25:46.707Z,21.93
2017-06-12T12:27:00.869Z,21.96
2017-06-12T12:28:16.362Z,21.94
2017-06-12T12:29:30.714Z,22.01
2017-06-12T12:30:46.225Z,22.13
2017-06-12T12:32:01.732Z,22.15
2017-06-12T12:33:17.198Z,22.11
2017-06-12T12:34:32.815Z,22.12
2017-06-12T12:35:47.965Z,22.18
2017-06-12T12:37:03.426Z,22.12
2017-06-12T12:38:19.261Z,22.03
2017-06-12T12:39:34.769Z,21.93
2017-06-12T12:40:50.199Z,21.88
2017-06-12T12:42:05.770Z,21.66
2017-06-12T12:43:21.480Z,21.43
2017-06-12T12:44:36.952Z,21.19
2017-06-12T12:45:52.461Z,21.04
2017-06-12T12:47:07.949Z,21
2017-06-12T12:48:23.408Z,20.82
2017-06-12T12:49:38.961Z,20.83
2017-06-12T12:50:54.608Z,20.85
2017-06-12T12:52:08.784Z,20.78
2017-06-12T12:53:24.240Z,20.79
2017-06-12T12:54:39.671Z,20.75
2017-06-12T12:55:55.203Z,20.78
2017-06-12T12:57:10.694Z,20.75
2017-06-12T12:58:26.224Z,20.75
2017-06-12T12:59:40.456Z,20.64
2017-06-12T13:00:55.958Z,20.67
2017-06-12T13:02:11.443Z,20.78
2017-06-12T13:03:26.894Z,20.78
2017-06-12T13:04:41.950Z,20.75
2017-06-12T13:05:54.641Z,20.57
2017-06-12T13:07:10.100Z,20.61
2017-06-12T13:08:24.194Z,20.71
2017-06-12T13:09:39.919Z,20.72
2017-06-12T13:10:55.532Z,20.78
2017-06-12T13:12:10.985Z,20.78
2017-06-12T13:13:25.158Z,20.67
2017-06-12T13:14:40.622Z,20.57
2017-06-12T13:15:56.143Z,20.48
2017-06-12T13:17:11.636Z,20.56
2017-06-12T13:18:25.811Z,20.49
2017-06-12T13:19:41.301Z,20.45
2017-06-12T13:20:56.740Z,20.27
2017-06-12T13:22:12.242Z,20.19
2017-06-12T13:23:27.753Z,20.17
2017-06-12T13:24:43.274Z,20.31
2017-06-12T13:25:58.754Z,20.45
2017-06-12T13:27:14.373Z,20.53
2017-06-12T13:28:29.801Z,20.67
2017-06-12T13:29:45.354Z,20.72
2017-06-12T13:31:00.806Z,20.76
2017-06-12T13:32:16.294Z,20.83
2017-06-12T13:33:31.757Z,20.88
2017-06-12T13:34:47.265Z,21.06
2017-06-12T13:36:03.195Z,21.22
2017-06-12T13:37:18.643Z,21.25
2017-06-12T13:38:32.832Z,21.2
2017-06-12T13:39:48.354Z,21.1
2017-06-12T13:41:03.829Z,21.1
2017-06-12T13:42:19.325Z,21.03
2017-06-12T13:43:33.464Z,20.9
2017-06-12T13:44:48.990Z,20.82
2017-06-12T13:46:03.206Z,20.86
2017-06-12T13:47:18.301Z,20.82
2017-06-12T13:48:32.513Z,20.85
2017-06-12T13:49:46.557Z,20.96
2017-06-12T13:51:02.022Z,20.86
2017-06-12T13:52:17.513Z,20.88
2017-06-12T13:53:32.983Z,20.93
2017-06-12T13:54:48.472Z,21
2017-06-12T13:56:03.900Z,20.88
2017-06-12T13:57:19.365Z,20.97
2017-06-12T13:58:34.861Z,20.97
2017-06-12T13:59:50.321Z,20.96
2017-06-12T14:01:05.809Z,20.97
2017-06-12T14:02:21.330Z,20.96
2017-06-12T14:03:36.857Z,21.01
2017-06-12T14:04:52.357Z,21
2017-06-12T14:06:08.011Z,21.1
2017-06-12T14:07:23.481Z,21.12
2017-06-12T14:08:38.959Z,21.09
2017-06-12T14:09:53.019Z,21.09
2017-06-12T14:11:08.536Z,20.98
2017-06-12T14:12:24.022Z,20.9
2017-06-12T14:13:40.098Z,20.79
2017-06-12T14:14:55.587Z,20.83
2017-06-12T14:16:11.076Z,20.88
2017-06-12T14:17:26.514Z,20.78
2017-06-12T14:18:42.007Z,20.68
2017-06-12T14:19:57.628Z,20.67
2017-06-12T14:21:13.032Z,20.67
2017-06-12T14:22:27.283Z,20.58
2017-06-12T14:23:42.761Z,20.67
2017-06-12T14:24:58.284Z,20.91
2017-06-12T14:26:13.740Z,20.97
2017-06-12T14:27:29.226Z,20.96
2017-06-12T14:28:44.722Z,20.98
2017-06-12T14:30:00.227Z,20.94
2017-06-12T14:31:13.120Z,20.86
2017-06-12T14:32:28.582Z,20.78
2017-06-12T14:33:44.290Z,20.72
2017-06-12T14:34:59.716Z,20.71
2017-06-12T14:36:15.219Z,20.61
2017-06-12T14:37:30.779Z,20.45
2017-06-12T14:38:46.324Z,20.45
2017-06-12T14:40:00.352Z,20.43
2017-06-12T14:41:15.829Z,20.36
2017-06-12T14:42:31.309Z,20.36
2017-06-12T14:43:46.754Z,20.3
2017-06-12T14:45:02.287Z,20.28
2017-06-12T14:46:17.753Z,20.39
2017-06-12T14:47:33.432Z,20.3
2017-06-12T14:48:47.616Z,20.35
2017-06-12T14:50:03.089Z,20.42
2017-06-12T14:51:18.588Z,20.51
2017-06-12T14:52:34.078Z,20.43
2017-06-12T14:53:48.268Z,20.53
2017-06-12T14:55:03.972Z,20.54
2017-06-12T14:56:19.432Z,20.63
2017-06-12T14:57:34.937Z,20.67
2017-06-12T14:58:50.381Z,20.66
2017-06-12T15:00:05.909Z,20.63
2017-06-12T15:01:21.677Z,20.53
2017-06-12T15:02:37.131Z,20.63
2017-06-12T15:03:52.318Z,20.61
2017-06-12T15:05:07.778Z,20.66
2017-06-12T15:06:23.337Z,20.72
2017-06-12T15:07:52.432Z,20.72
2017-06-12T15:09:07.906Z,20.67
2017-06-12T15:10:23.367Z,20.72
2017-06-12T15:11:38.856Z,20.6
2017-06-12T15:12:54.503Z,20.64
2017-06-12T15:14:08.817Z,20.61
2017-06-12T15:15:24.263Z,20.63
2017-06-12T15:16:38.316Z,20.61
2017-06-12T15:17:53.988Z,20.66
2017-06-12T15:19:09.520Z,20.63
2017-06-12T15:20:24.955Z,20.51
2017-06-12T15:21:39.123Z,20.39
2017-06-12T15:22:54.750Z,20.24
2017-06-12T15:24:10.334Z,20.05
2017-06-12T15:25:25.822Z,19.95
2017-06-12T15:26:41.311Z,19.92
2017-06-12T15:27:56.827Z,19.85
2017-06-12T15:29:10.993Z,19.85
2017-06-12T15:30:26.492Z,19.85
2017-06-12T15:31:42.206Z,19.71
2017-06-12T15:32:57.743Z,19.71
2017-06-12T15:34:13.239Z,19.63
2017-06-12T15:35:28.434Z,19.58
2017-06-12T15:36:42.680Z,19.52
2017-06-12T15:37:57.813Z,19.5
2017-06-12T15:39:13.303Z,19.31
2017-06-12T15:40:28.713Z,19.28
2017-06-12T15:41:44.218Z,19.27
2017-06-12T15:42:59.758Z,19.24
2017-06-12T15:44:15.432Z,19.15
2017-06-12T15:45:29.455Z,19.1
2017-06-12T15:46:44.961Z,19.25
2017-06-12T15:48:00.599Z,19.25
2017-06-12T15:49:16.125Z,19.23
2017-06-12T15:50:31.610Z,19.16
2017-06-12T15:51:47.191Z,19.18
2017-06-12T15:53:02.681Z,19.21
2017-06-12T15:54:18.157Z,19.15
2017-06-12T15:57:02.708Z,19.15
2017-06-12T15:58:18.165Z,19.15
2017-06-12T15:59:33.947Z,19.13
2017-06-12T16:00:49.507Z,19.12
2017-06-12T16:02:04.935Z,18.95
2017-06-12T16:03:20.462Z,18.97
2017-06-12T16:04:35.965Z,19
2017-06-12T16:05:51.513Z,19
2017-06-12T16:07:07.023Z,18.94
2017-06-12T16:08:22.600Z,18.91
2017-06-12T16:09:38.120Z,18.82
2017-06-12T16:10:53.602Z,18.87
2017-06-12T16:12:09.135Z,18.86
2017-06-12T16:13:24.622Z,18.84
2017-06-12T16:14:40.100Z,18.79
2017-06-12T16:15:55.571Z,18.76
2017-06-12T16:17:09.351Z,18.71
2017-06-12T16:18:24.792Z,18.72
2017-06-12T16:19:40.291Z,18.72
2017-06-12T16:20:55.797Z,18.62
2017-06-12T16:22:11.289Z,18.69
2017-06-12T16:23:26.805Z,18.72